Time;durP1;ratioP1;P1;durP2;ratioP2;P2;SDS_P1;SDS_P2;PMS_P1;PMS_P2;Temp;Humidity;BMP_temperature;BMP_pressure;BME280_temperature;BME280_humidity;BME280_pressure;Samples;Min_cycle;Max_cycle;Signal;HPM_P1;HPM_P2
2023/03/10 00:01:24;;;;;;;0.87;0.87;;;;;;;-0.17;100.00;97823.41;5074466;28;20175;-70
2023/03/10 00:03:51;;;;;;;2.00;2.00;;;;;;;-0.17;100.00;97826.09;5074155;28;20916;-70
2023/03/10 00:06:20;;;;;;;4.47;3.67;;;;;;;-0.21;100.00;97817.06;5074293;28;20769;-70
2023/03/10 00:08:45;;;;;;;1.03;1.03;;;;;;;-0.16;100.00;97810.78;5073942;28;20777;-69
2023/03/10 00:11:11;;;;;;;1.50;1.40;;;;;;;-0.16;100.00;97803.53;5074030;28;20409;-71
2023/03/10 00:13:36;;;;;;;4.90;3.87;;;;;;;-0.16;100.00;97792.78;5074068;28;20171;-69
2023/03/10 00:16:02;;;;;;;1.40;1.40;;;;;;;-0.16;100.00;97800.06;5074161;28;20583;-69
2023/03/10 00:18:28;;;;;;;0.00;0.00;;;;;;;-0.16;100.00;97783.94;5073703;28;20531;-69
2023/03/10 00:20:53;;;;;;;0.23;0.23;;;;;;;-0.16;100.00;97768.66;5073965;28;20183;-70
2023/03/10 00:23:20;;;;;;;0.10;0.10;;;;;;;-0.19;100.00;97771.94;5073874;28;20253;-69
2023/03/10 00:25:55;;;;;;;0.90;0.90;;;;;;;-0.20;100.00;97773.03;5073803;28;20313;-70
2023/03/10 00:28:21;;;;;;;0.10;0.10;;;;;;;-0.17;100.00;97763.59;5072200;28;20477;-69
2023/03/10 00:30:59;;;;;;;2.70;2.30;;;;;;;-0.19;100.00;97753.16;5073804;28;20206;-71
2023/03/10 00:33:24;;;;;;;2.30;2.10;;;;;;;-0.17;100.00;97744.81;5073635;28;20669;-70
2023/03/10 00:36:00;;;;;;;0.83;0.83;;;;;;;-0.18;100.00;97744.03;5073694;28;20417;-69
2023/03/10 00:38:25;;;;;;;3.40;1.80;;;;;;;-0.19;100.00;97747.00;5073409;28;20166;-71
2023/03/10 00:41:22;;;;;;;2.73;2.33;;;;;;;-0.16;100.00;97732.97;5073765;28;20447;-70
2023/03/10 00:43:47;;;;;;;1.60;1.33;;;;;;;-0.16;100.00;97741.03;5066993;28;20567;-69
2023/03/10 00:46:13;;;;;;;3.50;3.17;;;;;;;-0.19;100.00;97726.34;5073360;28;20413;-69
2023/03/10 00:48:39;;;;;;;1.47;1.37;;;;;;;-0.11;100.00;97720.25;5073624;28;20198;-71
2023/03/10 00:51:05;;;;;;;0.00;0.00;;;;;;;-0.04;100.00;97728.63;5073763;28;20228;-71
2023/03/10 00:53:33;;;;;;;0.20;0.10;;;;;;;-0.06;100.00;97714.72;5073245;28;20572;-70
2023/03/10 00:56:01;;;;;;;1.10;1.10;;;;;;;-0.05;100.00;97718.19;5073263;28;20452;-70
2023/03/10 00:58:27;;;;;;;1.03;1.03;;;;;;;-0.10;100.00;97718.34;5072996;28;20460;-70
2023/03/10 01:00:53;;;;;;;0.00;0.00;;;;;;;-0.09;100.00;97709.19;5073542;28;20427;-71
2023/03/10 01:03:19;;;;;;;2.40;1.57;;;;;;;-0.14;100.00;97695.91;5071717;28;20417;-70
2023/03/10 01:05:45;;;;;;;3.27;1.90;;;;;;;-0.11;100.00;97690.72;5072935;28;20182;-70
2023/03/10 01:08:10;;;;;;;0.43;0.43;;;;;;;-0.15;100.00;97681.69;5071760;28;20201;-70
2023/03/10 01:10:35;;;;;;;0.97;0.97;;;;;;;-0.13;100.00;97679.50;5071976;28;20220;-70
2023/03/10 01:13:00;;;;;;;1.73;1.63;;;;;;;-0.15;100.00;97672.84;5072888;28;20332;-72
2023/03/10 01:15:26;;;;;;;1.23;1.13;;;;;;;-0.17;100.00;97665.13;5073124;28;20166;-71
2023/03/10 01:17:51;;;;;;;1.30;1.03;;;;;;;-0.14;100.00;97661.03;5072446;28;20190;-71
2023/03/10 01:20:17;;;;;;;1.23;0.70;;;;;;;-0.18;100.00;97657.38;5073288;28;20175;-70
2023/03/10 01:22:43;;;;;;;1.97;1.63;;;;;;;-0.15;100.00;97646.81;5071528;28;20182;-70
2023/03/10 01:25:14;;;;;;;7.10;1.43;;;;;;;-0.15;100.00;97644.13;5072713;28;20650;-69
2023/03/10 01:27:41;;;;;;;0.50;0.30;;;;;;;-0.10;100.00;97641.31;5071244;28;20189;-71
2023/03/10 01:30:08;;;;;;;2.67;2.47;;;;;;;-0.15;100.00;97635.28;5072991;28;20218;-69
2023/03/10 01:32:34;;;;;;;0.00;0.00;;;;;;;-0.11;100.00;97625.53;5072497;28;20424;-69
2023/03/10 01:34:59;;;;;;;0.00;0.00;;;;;;;-0.15;100.00;97622.66;5072554;28;20413;-71
2023/03/10 01:37:25;;;;;;;0.13;0.10;;;;;;;-0.10;100.00;97605.66;5072334;28;20182;-70
2023/03/10 01:39:50;;;;;;;0.80;0.80;;;;;;;-0.14;100.00;97594.75;5071194;28;20610;-70
2023/03/10 01:42:15;;;;;;;1.10;0.47;;;;;;;-0.09;100.00;97581.19;5072541;28;20192;-70
2023/03/10 01:44:41;;;;;;;0.30;0.30;;;;;;;-0.10;100.00;97574.25;5072350;28;20167;-72
2023/03/10 01:47:06;;;;;;;1.40;1.20;;;;;;;-0.13;100.00;97566.81;5072227;28;20171;-71
2023/03/10 01:49:49;;;;;;;1.73;1.63;;;;;;;-0.13;100.00;97561.47;5072669;28;20668;-70
2023/03/10 01:52:20;;;;;;;0.27;0.27;;;;;;;-0.09;100.00;97551.69;5071151;28;20178;-71
2023/03/10 01:54:52;;;;;;;1.03;1.03;;;;;;;-0.10;100.00;97560.81;5072088;28;20413;-70
2023/03/10 01:57:22;;;;;;;0.57;0.50;;;;;;;-0.14;100.00;97546.47;5071012;28;20409;-70
2023/03/10 01:59:49;;;;;;;0.20;0.20;;;;;;;-0.11;100.00;97545.03;5072221;28;20451;-71
2023/03/10 02:02:14;;;;;;;1.23;1.13;;;;;;;-0.13;100.00;97533.84;5071980;28;20424;-70
2023/03/10 02:04:43;;;;;;;0.97;0.63;;;;;;;-0.10;100.00;97528.63;5071896;28;20413;-70
2023/03/10 02:07:09;;;;;;;2.23;2.10;;;;;;;-0.10;100.00;97525.94;5070330;28;20638;-70
2023/03/10 02:09:38;;;;;;;4.33;3.93;;;;;;;-0.11;100.00;97513.63;5071757;28;20467;-71
2023/03/10 02:12:04;;;;;;;2.13;1.70;;;;;;;-0.13;100.00;97499.75;5071828;28;20253;-71
2023/03/10 02:14:31;;;;;;;0.10;0.10;;;;;;;-0.10;100.00;97509.06;5071640;28;20427;-70
2023/03/10 02:16:57;;;;;;;0.37;0.37;;;;;;;-0.09;100.00;97497.22;5071253;28;20409;-71
2023/03/10 02:19:34;;;;;;;3.90;3.40;;;;;;;-0.10;100.00;97488.38;5071760;28;20576;-70
2023/03/10 02:22:05;;;;;;;0.23;0.23;;;;;;;-0.03;100.00;97467.22;5071685;28;20403;-70
2023/03/10 02:24:52;;;;;;;0.77;0.77;;;;;;;-0.05;100.00;97464.06;5070504;28;20826;-69
2023/03/10 02:27:28;;;;;;;6.23;1.33;;;;;;;-0.13;100.00;97456.81;5069904;28;20189;-70
2023/03/10 02:30:29;;;;;;;0.73;0.53;;;;;;;-0.12;100.00;97452.25;5070253;28;20904;-71
2023/03/10 02:33:01;;;;;;;1.57;1.27;;;;;;;-0.14;100.00;97444.50;5057805;28;20186;-70
2023/03/10 02:35:27;;;;;;;0.10;0.10;;;;;;;-0.08;100.00;97440.56;5071321;28;20409;-71
2023/03/10 02:37:53;;;;;;;0.00;0.00;;;;;;;-0.02;100.00;97446.53;5071272;28;20421;-70
2023/03/10 02:40:36;;;;;;;1.87;1.80;;;;;;;-0.03;100.00;97432.34;5071470;28;20411;-71
2023/03/10 02:43:07;;;;;;;3.77;2.87;;;;;;;-0.06;100.00;97424.13;5069893;28;20178;-69
2023/03/10 02:45:36;;;;;;;0.20;0.20;;;;;;;-0.06;100.00;97418.78;5071223;28;20427;-72
2023/03/10 02:48:01;;;;;;;0.73;0.73;;;;;;;-0.05;100.00;97420.34;5070857;28;20646;-70
2023/03/10 02:50:32;;;;;;;0.73;0.73;;;;;;;-0.07;100.00;97420.66;5071357;28;20466;-70
2023/03/10 02:53:15;;;;;;;1.27;1.20;;;;;;;-0.06;100.00;97405.34;5071154;28;20162;-69
2023/03/10 02:55:41;;;;;;;0.20;0.20;;;;;;;0.02;100.00;97398.41;5070991;28;20420;-70
2023/03/10 02:58:06;;;;;;;0.00;0.00;;;;;;;0.10;100.00;97405.66;5070864;28;20423;-70
2023/03/10 03:00:36;;;;;;;0.00;0.00;;;;;;;0.05;100.00;97403.94;5072970;28;20340;-70
2023/03/10 03:03:02;;;;;;;0.00;0.00;;;;;;;0.09;100.00;97406.75;5071192;28;20252;-71
2023/03/10 03:05:27;;;;;;;0.00;0.00;;;;;;;0.08;100.00;97405.19;5070950;28;20231;-71
2023/03/10 03:07:53;;;;;;;0.00;0.00;;;;;;;0.02;100.00;97401.91;5069598;28;20190;-70
2023/03/10 03:10:18;;;;;;;0.33;0.33;;;;;;;0.01;100.00;97391.47;5071185;28;20685;-70
2023/03/10 03:12:44;;;;;;;0.03;0.03;;;;;;;-0.01;100.00;97379.13;5070916;28;20174;-71
2023/03/10 03:15:09;;;;;;;0.00;0.00;;;;;;;0.11;100.00;97375.03;5070896;28;20178;-71
2023/03/10 03:17:35;;;;;;;0.00;0.00;;;;;;;0.05;100.00;97373.63;5070591;28;20178;-71
2023/03/10 03:20:00;;;;;;;0.50;0.40;;;;;;;0.04;100.00;97364.00;5071063;28;20201;-70
2023/03/10 03:22:25;;;;;;;1.83;1.03;;;;;;;0.02;100.00;97360.84;5070679;28;20637;-71
2023/03/10 03:24:51;;;;;;;1.60;1.50;;;;;;;0.10;100.00;97368.88;5070658;28;20174;-70
2023/03/10 03:27:16;;;;;;;0.17;0.17;;;;;;;0.08;100.00;97359.56;5070868;28;20182;-75
2023/03/10 03:29:41;;;;;;;1.27;1.27;;;;;;;0.07;100.00;97360.69;5070661;28;20202;-73
2023/03/10 03:32:06;;;;;;;2.13;0.73;;;;;;;0.07;100.00;97352.63;5070113;28;20170;-70
2023/03/10 03:34:32;;;;;;;0.37;0.20;;;;;;;0.06;100.00;97351.84;5070562;28;20181;-71
2023/03/10 03:36:57;;;;;;;0.00;0.00;;;;;;;0.14;100.00;97347.53;5070439;28;20173;-70
2023/03/10 03:39:22;;;;;;;0.00;0.00;;;;;;;0.13;100.00;97341.38;5070702;28;20188;-72
2023/03/10 03:41:51;;;;;;;0.90;0.90;;;;;;;0.20;100.00;97339.00;5070400;28;20174;-70
2023/03/10 03:44:17;;;;;;;0.80;0.80;;;;;;;0.23;100.00;97324.16;5070391;28;20586;-70
2023/03/10 03:46:43;;;;;;;2.00;1.80;;;;;;;0.17;100.00;97328.13;5070566;28;20178;-71
2023/03/10 03:49:09;;;;;;;0.00;0.00;;;;;;;0.21;100.00;97321.81;5070409;28;20194;-71
2023/03/10 03:51:35;;;;;;;0.10;0.10;;;;;;;0.18;100.00;97330.50;5070546;28;20656;-71
2023/03/10 03:54:01;;;;;;;0.53;0.50;;;;;;;0.17;100.00;97325.44;5070262;28;20431;-71
2023/03/10 03:56:26;;;;;;;0.03;0.03;;;;;;;0.21;100.00;97321.00;5070557;28;20631;-70
2023/03/10 03:58:51;;;;;;;0.00;0.00;;;;;;;0.20;100.00;97320.22;5069205;28;20202;-71
2023/03/10 04:01:16;;;;;;;0.00;0.00;;;;;;;0.35;100.00;97313.53;5069236;28;20175;-70
2023/03/10 04:03:42;;;;;;;1.70;1.63;;;;;;;0.34;100.00;97321.94;5070279;28;20175;-71
2023/03/10 04:06:07;;;;;;;1.20;1.10;;;;;;;0.29;100.00;97309.47;5070161;28;20254;-71
2023/03/10 04:08:33;;;;;;;0.00;0.00;;;;;;;0.33;100.00;97312.28;5068818;28;20210;-71
2023/03/10 04:10:58;;;;;;;0.00;0.00;;;;;;;0.33;100.00;97313.09;5070237;28;20209;-70
2023/03/10 04:13:24;;;;;;;0.00;0.00;;;;;;;0.42;100.00;97316.50;5070054;28;20220;-73
2023/03/10 04:15:54;;;;;;;0.00;0.00;;;;;;;0.25;100.00;97324.63;5070226;28;20167;-70
2023/03/10 04:18:20;;;;;;;0.00;0.00;;;;;;;0.38;100.00;97337.06;5069790;28;20252;-71
2023/03/10 04:20:45;;;;;;;0.20;0.20;;;;;;;0.37;100.00;97346.22;5069963;28;20917;-70
2023/03/10 04:23:10;;;;;;;0.00;0.00;;;;;;;0.27;100.00;97343.88;5070061;28;20175;-71
2023/03/10 04:25:39;;;;;;;0.30;0.30;;;;;;;0.27;100.00;97327.78;5070131;28;20178;-70
2023/03/10 04:28:04;;;;;;;0.00;0.00;;;;;;;0.37;100.00;97330.13;5068555;28;20532;-72
2023/03/10 04:30:30;;;;;;;0.00;0.00;;;;;;;0.45;100.00;97321.25;5068674;28;20202;-70
2023/03/10 04:32:59;;;;;;;0.00;0.00;;;;;;;0.53;100.00;97325.00;5070049;28;20174;-71
2023/03/10 04:35:24;;;;;;;0.00;0.00;;;;;;;0.66;100.00;97321.31;5068439;28;20606;-70
2023/03/10 04:37:49;;;;;;;0.20;0.20;;;;;;;0.61;100.00;97312.66;5069854;28;20253;-69
2023/03/10 04:40:15;;;;;;;0.87;0.50;;;;;;;0.66;100.00;97317.84;5069990;28;20577;-72
2023/03/10 04:42:41;;;;;;;1.20;0.77;;;;;;;0.59;100.00;97327.19;5070032;28;20177;-71
2023/03/10 04:45:07;;;;;;;4.13;4.03;;;;;;;0.56;100.00;97319.75;5071453;28;20711;-72
2023/03/10 04:47:32;;;;;;;0.00;0.00;;;;;;;0.58;100.00;97322.94;5073267;28;20170;-73
2023/03/10 04:49:58;;;;;;;0.00;0.00;;;;;;;0.51;100.00;97330.69;5073163;28;20691;-70
2023/03/10 04:52:23;;;;;;;0.00;0.00;;;;;;;0.57;100.00;97325.91;5072047;28;20406;-72
2023/03/10 04:54:49;;;;;;;0.37;0.37;;;;;;;0.67;100.00;97322.09;5073458;28;20167;-73
2023/03/10 04:57:15;;;;;;;0.00;0.00;;;;;;;0.77;100.00;97319.84;5073092;28;20174;-75
2023/03/10 04:59:40;;;;;;;0.00;0.00;;;;;;;0.69;100.00;97319.88;5073259;28;20213;-71
2023/03/10 05:02:05;;;;;;;0.00;0.00;;;;;;;0.80;100.00;97316.50;5073205;28;20203;-72
2023/03/10 05:04:31;;;;;;;0.00;0.00;;;;;;;0.73;100.00;97315.44;5072923;28;20669;-72
2023/03/10 05:06:56;;;;;;;0.10;0.10;;;;;;;0.77;100.00;97316.38;5072735;28;20240;-70
2023/03/10 05:09:21;;;;;;;4.00;2.27;;;;;;;0.72;100.00;97320.00;5071697;28;20225;-72
2023/03/10 05:11:47;;;;;;;2.20;2.00;;;;;;;1.16;100.00;97320.56;5071643;28;20676;-76
2023/03/10 05:14:13;;;;;;;2.53;2.37;;;;;;;1.60;100.00;97318.34;5072600;28;20228;-74
2023/03/10 05:16:38;;;;;;;0.70;0.70;;;;;;;1.97;100.00;97330.81;5071118;28;20178;-73
2023/03/10 05:19:04;;;;;;;2.33;1.33;;;;;;;2.10;100.00;97318.19;5072697;28;20657;-73
2023/03/10 05:21:29;;;;;;;1.93;1.83;;;;;;;2.18;100.00;97316.53;5072906;28;20202;-71
2023/03/10 05:23:54;;;;;;;2.57;2.37;;;;;;;2.17;100.00;97314.94;5072745;28;20521;-76
2023/03/10 05:26:20;;;;;;;1.57;1.47;;;;;;;2.23;100.00;97311.69;5071377;28;20185;-71
2023/03/10 05:28:45;;;;;;;2.73;2.53;;;;;;;2.49;100.00;97324.88;5072601;28;20200;-72
2023/03/10 05:31:14;;;;;;;1.30;1.20;;;;;;;2.63;100.00;97336.13;5072465;28;20213;-75
2023/03/10 05:33:40;;;;;;;1.70;0.83;;;;;;;2.88;100.00;97355.00;5072709;28;20174;-76
2023/03/10 05:36:11;;;;;;;1.60;1.30;;;;;;;2.43;100.00;97363.91;5072575;28;20201;-74
2023/03/10 05:38:36;;;;;;;0.50;0.50;;;;;;;1.44;100.00;97367.31;5072365;28;20273;-73
2023/03/10 05:41:07;;;;;;;2.57;2.37;;;;;;;1.91;100.00;97366.34;5071356;28;20689;-75
2023/03/10 05:43:32;;;;;;;1.43;1.33;;;;;;;2.18;100.00;97367.69;5072385;28;20173;-72
2023/03/10 05:45:59;;;;;;;0.20;0.20;;;;;;;2.18;100.00;97373.88;5072322;28;20182;-76
2023/03/10 05:48:25;;;;;;;1.07;1.07;;;;;;;2.12;100.00;97375.16;5072662;28;20258;-76
2023/03/10 05:51:00;;;;;;;1.57;1.47;;;;;;;2.02;100.00;97378.28;5072206;28;20210;-78
2023/03/10 05:53:26;;;;;;;1.10;0.97;;;;;;;1.97;100.00;97379.28;5072179;28;20186;-79
2023/03/10 05:55:53;;;;;;;2.20;1.50;;;;;;;1.93;100.00;97382.97;5071752;28;20174;-79
2023/03/10 05:58:19;;;;;;;2.37;1.87;;;;;;;2.00;100.00;97392.06;5071967;28;20175;-79
2023/03/10 06:00:44;;;;;;;2.83;2.50;;;;;;;1.99;100.00;97392.41;5070787;28;20274;-79
2023/03/10 06:03:10;;;;;;;2.77;2.57;;;;;;;2.03;100.00;97393.34;5070707;28;20214;-78
2023/03/10 06:05:35;;;;;;;1.73;1.63;;;;;;;2.09;100.00;97398.16;5073849;28;20266;-70
2023/03/10 06:08:00;;;;;;;2.47;2.27;;;;;;;2.14;100.00;97397.16;5076396;28;20240;-72
2023/03/10 06:10:26;;;;;;;0.63;0.57;;;;;;;2.27;100.00;97412.25;5077945;28;20247;-70
2023/03/10 06:12:51;;;;;;;0.33;0.33;;;;;;;2.47;100.00;97416.03;5071546;28;20190;-72
2023/03/10 06:15:16;;;;;;;0.10;0.10;;;;;;;2.55;100.00;97425.13;5072350;28;20694;-71
2023/03/10 06:17:42;;;;;;;0.83;0.83;;;;;;;2.48;100.00;97427.59;5071516;28;20183;-71
2023/03/10 06:20:07;;;;;;;0.30;0.30;;;;;;;2.38;100.00;97426.09;5072033;28;20170;-72
2023/03/10 06:22:33;;;;;;;1.90;1.80;;;;;;;2.21;100.00;97437.03;5072082;28;20591;-77
2023/03/10 06:24:58;;;;;;;0.23;0.23;;;;;;;2.10;100.00;97436.66;5072019;28;20646;-79
2023/03/10 06:27:23;;;;;;;0.13;0.13;;;;;;;2.03;100.00;97441.78;5071946;28;20660;-78
2023/03/10 06:29:49;;;;;;;0.33;0.33;;;;;;;1.97;100.00;97443.88;5072068;28;20198;-72
2023/03/10 06:32:14;;;;;;;2.40;0.97;;;;;;;1.93;100.00;97452.94;5071750;28;20480;-78
2023/03/10 06:34:40;;;;;;;5.00;2.57;;;;;;;1.88;100.00;97471.97;5071546;28;20602;-78
2023/03/10 06:37:05;;;;;;;1.10;1.00;;;;;;;1.85;100.00;97475.31;5071388;28;20183;-79
2023/03/10 06:39:30;;;;;;;1.00;1.00;;;;;;;1.79;100.00;97478.22;5071681;28;20214;-79
2023/03/10 06:41:56;;;;;;;1.27;1.27;;;;;;;1.75;100.00;97488.06;5070089;28;20174;-79
2023/03/10 06:44:21;;;;;;;1.17;1.07;;;;;;;1.71;100.00;97487.13;5069878;28;20194;-78
2023/03/10 06:46:46;;;;;;;2.47;2.03;;;;;;;1.64;100.00;97489.53;5071278;28;20175;-78
2023/03/10 06:49:12;;;;;;;2.10;1.93;;;;;;;1.59;100.00;97497.81;5071000;28;20662;-79
2023/03/10 06:51:37;;;;;;;0.07;0.07;;;;;;;1.60;100.00;97501.28;5071216;28;20178;-78
2023/03/10 06:54:03;;;;;;;0.50;0.50;;;;;;;1.58;100.00;97509.66;5069559;28;20266;-76
2023/03/10 06:56:29;;;;;;;2.30;2.10;;;;;;;1.54;100.00;97511.44;5070979;28;20175;-79
2023/03/10 06:58:54;;;;;;;0.40;0.40;;;;;;;1.53;100.00;97512.53;5070924;28;20576;-79
2023/03/10 07:01:31;;;;;;;2.67;2.03;;;;;;;1.51;100.00;97506.72;5069688;28;20194;-79
2023/03/10 07:03:57;;;;;;;1.80;1.70;;;;;;;1.51;100.00;97514.78;5071048;28;20163;-78
2023/03/10 07:06:24;;;;;;;0.77;0.77;;;;;;;1.51;100.00;97514.78;5071110;28;20439;-79
2023/03/10 07:08:50;;;;;;;0.30;0.30;;;;;;;1.51;100.00;97504.00;5070497;28;20179;-80
2023/03/10 07:11:16;;;;;;;0.33;0.33;;;;;;;1.47;100.00;97511.16;5070724;28;20626;-80
2023/03/10 07:13:42;;;;;;;0.00;0.00;;;;;;;1.48;100.00;97515.44;5069782;28;20187;-79
2023/03/10 07:16:07;;;;;;;1.60;1.50;;;;;;;1.52;100.00;97520.94;5071099;28;20205;-80
2023/03/10 07:18:33;;;;;;;0.47;0.47;;;;;;;1.52;100.00;97527.13;5070357;28;20179;-78
2023/03/10 07:20:58;;;;;;;2.63;2.00;;;;;;;1.51;100.00;97536.31;5069128;28;20179;-77
2023/03/10 07:23:24;;;;;;;0.53;0.53;;;;;;;1.49;100.00;97531.25;5070661;28;20178;-77
2023/03/10 07:25:56;;;;;;;0.17;0.17;;;;;;;1.50;100.00;97529.34;5070693;28;20171;-78
2023/03/10 07:28:25;;;;;;;1.17;1.17;;;;;;;1.51;100.00;97535.50;5069191;28;20376;-75
2023/03/10 07:30:51;;;;;;;1.77;1.67;;;;;;;1.51;100.00;97541.69;5069882;28;20223;-77
2023/03/10 07:33:16;;;;;;;0.00;0.00;;;;;;;1.49;100.00;97539.31;5070789;28;20174;-79
2023/03/10 07:35:41;;;;;;;7.00;3.80;;;;;;;1.52;100.00;97540.56;5070965;28;20174;-78
2023/03/10 07:38:07;;;;;;;1.00;1.00;;;;;;;1.58;100.00;97550.03;5070658;28;20622;-78
2023/03/10 07:40:33;;;;;;;0.00;0.00;;;;;;;1.62;100.00;97542.91;5070652;28;20557;-78
2023/03/10 07:42:58;;;;;;;0.53;0.53;;;;;;;1.63;100.00;97557.94;5069286;28;20534;-76
2023/03/10 07:45:24;;;;;;;0.83;0.83;;;;;;;1.61;100.00;97564.75;5070423;28;20174;-77
2023/03/10 07:47:51;;;;;;;0.40;0.40;;;;;;;1.56;100.00;97579.16;5070356;28;20232;-77
2023/03/10 07:50:17;;;;;;;0.20;0.20;;;;;;;1.54;100.00;97576.00;5069220;28;20604;-73
2023/03/10 07:52:42;;;;;;;0.00;0.00;;;;;;;1.59;100.00;97566.94;5070533;28;20170;-71
2023/03/10 07:55:08;;;;;;;0.20;0.20;;;;;;;1.68;100.00;97579.25;5069257;28;20196;-71
2023/03/10 07:57:33;;;;;;;0.10;0.10;;;;;;;1.72;100.00;97577.50;5070548;28;20185;-72
2023/03/10 07:59:59;;;;;;;0.50;0.50;;;;;;;1.76;100.00;97583.84;5070710;28;20175;-72
2023/03/10 08:02:24;;;;;;;1.57;1.47;;;;;;;1.75;100.00;97579.56;5070073;28;20170;-71
2023/03/10 08:04:49;;;;;;;1.70;1.70;;;;;;;1.72;100.00;97607.09;5070052;28;20294;-71
2023/03/10 08:07:15;;;;;;;0.30;0.30;;;;;;;1.72;100.00;97599.03;5069668;28;20261;-70
2023/03/10 08:09:40;;;;;;;0.43;0.33;;;;;;;1.75;100.00;97611.84;5069959;28;20277;-72
2023/03/10 08:12:06;;;;;;;0.00;0.00;;;;;;;1.74;100.00;97607.59;5069867;28;20174;-72
2023/03/10 08:14:31;;;;;;;0.00;0.00;;;;;;;1.79;100.00;97604.72;5069803;28;20210;-72
2023/03/10 08:16:57;;;;;;;2.23;2.03;;;;;;;1.83;100.00;97621.00;5069173;28;20340;-71
2023/03/10 08:19:24;;;;;;;0.27;0.27;;;;;;;1.82;100.00;97619.41;5072013;28;20207;-73
2023/03/10 08:21:49;;;;;;;0.00;0.00;;;;;;;1.89;100.00;97622.41;5073762;28;20224;-71
2023/03/10 08:24:15;;;;;;;0.97;0.97;;;;;;;1.93;100.00;97634.09;5073566;28;20171;-73
2023/03/10 08:26:40;;;;;;;0.00;0.00;;;;;;;1.90;100.00;97623.97;5073409;28;20202;-77
2023/03/10 08:29:05;;;;;;;0.00;0.00;;;;;;;1.91;100.00;97625.56;5073142;28;20171;-78
2023/03/10 08:31:31;;;;;;;0.00;0.00;;;;;;;1.76;100.00;97634.19;5073278;28;20170;-77
2023/03/10 08:33:57;;;;;;;0.00;0.00;;;;;;;1.76;100.00;97629.59;5071987;28;20170;-78
2023/03/10 08:36:27;;;;;;;0.00;0.00;;;;;;;1.86;100.00;97633.78;5073276;28;20656;-78
2023/03/10 08:38:55;;;;;;;0.00;0.00;;;;;;;1.86;100.00;97630.31;5073121;28;20167;-79
2023/03/10 08:41:24;;;;;;;0.00;0.00;;;;;;;1.77;100.00;97615.00;5073187;28;20303;-75
2023/03/10 08:43:51;;;;;;;0.20;0.20;;;;;;;1.73;100.00;97613.28;5071556;28;20210;-78
2023/03/10 08:46:18;;;;;;;0.73;0.73;;;;;;;1.68;100.00;97616.16;5073222;28;20171;-78
2023/03/10 08:48:44;;;;;;;0.10;0.10;;;;;;;1.75;100.00;97619.94;5072813;28;20258;-77
2023/03/10 08:51:10;;;;;;;4.80;1.33;;;;;;;1.73;100.00;97624.81;5071427;28;20340;-78
2023/03/10 08:53:37;;;;;;;0.00;0.00;;;;;;;1.78;100.00;97626.56;5072956;28;20254;-78
2023/03/10 08:56:04;;;;;;;0.00;0.00;;;;;;;1.80;100.00;97632.41;5072881;28;20171;-77
2023/03/10 08:58:29;;;;;;;4.00;3.80;;;;;;;1.92;100.00;97626.34;5072562;28;20177;-77
2023/03/10 09:00:54;;;;;;;0.00;0.00;;;;;;;1.99;100.00;97623.94;5072858;28;20171;-78
2023/03/10 09:03:20;;;;;;;0.00;0.00;;;;;;;2.06;100.00;97633.09;5071760;28;20179;-77
2023/03/10 09:05:45;;;;;;;0.00;0.00;;;;;;;2.05;100.00;97628.03;5071883;28;20342;-78
2023/03/10 09:08:11;;;;;;;0.00;0.00;;;;;;;2.13;100.00;97634.47;5071598;28;20281;-75
2023/03/10 09:10:39;;;;;;;0.73;0.73;;;;;;;1.95;100.00;97647.22;5073107;28;20209;-76
2023/03/10 09:13:04;;;;;;;0.00;0.00;;;;;;;1.87;100.00;97631.91;5073067;28;20178;-78
2023/03/10 09:15:29;;;;;;;0.00;0.00;;;;;;;1.76;100.00;97632.28;5073235;28;20224;-79
2023/03/10 09:17:55;;;;;;;3.13;2.93;;;;;;;1.73;100.00;97626.72;5071326;28;20183;-78
2023/03/10 09:20:24;;;;;;;0.00;0.00;;;;;;;1.63;100.00;97627.09;5073043;28;20182;-83
2023/03/10 09:22:54;;;;;;;0.00;0.00;;;;;;;1.68;100.00;97635.00;5072976;28;20178;-79
2023/03/10 09:25:20;;;;;;;3.73;1.97;;;;;;;1.69;100.00;97640.03;5072632;28;20225;-79
2023/03/10 09:27:45;;;;;;;0.20;0.20;;;;;;;1.77;100.00;97636.53;5072666;28;20206;-77
2023/03/10 09:30:11;;;;;;;4.30;4.10;;;;;;;1.89;100.00;97652.03;5072137;28;20198;-78
2023/03/10 09:32:37;;;;;;;0.00;0.00;;;;;;;1.82;100.00;97646.34;5072716;28;20174;-77
2023/03/10 09:35:03;;;;;;;0.03;0.03;;;;;;;1.75;100.00;97652.22;5072759;28;20178;-80
2023/03/10 09:37:28;;;;;;;0.53;0.53;;;;;;;1.77;100.00;97654.59;5072367;28;20174;-79
2023/03/10 09:39:53;;;;;;;1.27;1.27;;;;;;;1.73;100.00;97637.50;5071188;28;20909;-74
2023/03/10 09:42:32;;;;;;;0.00;0.00;;;;;;;1.75;100.00;97643.38;5072518;28;20249;-79
2023/03/10 09:45:21;;;;;;;20.27;1.33;;;;;;;1.78;100.00;97634.63;5072764;28;20237;-79
2023/03/10 09:48:04;;;;;;;0.00;0.00;;;;;;;1.71;100.00;97629.75;5034205;28;20273;-78
2023/03/10 09:50:36;;;;;;;12.53;1.60;;;;;;;1.86;100.00;97625.72;5071065;28;20670;-79
2023/03/10 09:53:38;;;;;;;0.00;0.00;;;;;;;1.82;100.00;97640.16;5071167;28;20209;-79
2023/03/10 09:56:11;;;;;;;0.00;0.00;;;;;;;1.93;100.00;97630.63;5072242;28;20582;-80
2023/03/10 09:59:35;;;;;;;0.00;0.00;;;;;;;2.00;100.00;97631.69;5072259;28;20236;-80
2023/03/10 10:02:01;;;;;;;0.00;0.00;;;;;;;2.14;100.00;97631.44;5029493;28;20644;-80
2023/03/10 10:04:38;;;;;;;0.77;0.77;;;;;;;2.22;100.00;97627.94;5063599;28;20269;-79
2023/03/10 10:07:14;;;;;;;0.00;0.00;;;;;;;2.05;100.00;97639.59;5071706;28;20182;-79
2023/03/10 10:09:49;;;;;;;0.00;0.00;;;;;;;2.05;100.00;97642.28;5071962;28;20182;-77
2023/03/10 10:12:17;;;;;;;0.00;0.00;;;;;;;2.05;100.00;97652.25;5070669;28;20257;-79
2023/03/10 10:14:44;;;;;;;0.00;0.00;;;;;;;2.18;100.00;97653.16;5072144;28;20171;-79
2023/03/10 10:17:46;;;;;;;0.83;0.83;;;;;;;2.31;100.00;97644.81;5069934;28;20171;-84
2023/03/10 10:20:20;;;;;;;0.00;0.00;;;;;;;2.27;100.00;97637.72;5071702;28;20170;-84
2023/03/10 10:22:46;;;;;;;0.00;0.00;;;;;;;2.11;100.00;97653.66;5071700;28;20220;-84
2023/03/10 10:25:19;;;;;;;0.97;0.97;;;;;;;2.16;100.00;97645.38;5071367;28;20269;-83
2023/03/10 10:27:46;;;;;;;0.10;0.10;;;;;;;2.10;100.00;97657.47;5071411;28;20442;-84
2023/03/10 10:30:31;;;;;;;0.13;0.13;;;;;;;2.11;100.00;97650.94;5071503;28;20213;-83
2023/03/10 10:33:06;;;;;;;0.00;0.00;;;;;;;2.18;100.00;97653.16;5071552;28;20228;-77
2023/03/10 10:35:35;;;;;;;0.97;0.97;;;;;;;2.09;100.00;97653.97;5071312;28;20536;-80
2023/03/10 10:38:08;;;;;;;0.00;0.00;;;;;;;2.15;100.00;97646.50;5071463;28;20532;-82
2023/03/10 10:40:44;;;;;;;0.10;0.10;;;;;;;2.19;100.00;97646.66;5070095;28;20167;-84
2023/03/10 10:43:15;;;;;;;0.73;0.73;;;;;;;2.16;100.00;97655.34;5071667;28;20232;-82
2023/03/10 10:45:40;;;;;;;0.10;0.10;;;;;;;2.10;100.00;97668.22;5071475;28;20167;-78
2023/03/10 10:48:32;;;;;;;0.00;0.00;;;;;;;2.15;100.00;97665.34;5071112;28;20515;-83
2023/03/10 10:50:57;;;;;;;0.37;0.37;;;;;;;2.18;100.00;97672.00;5071210;28;20202;-79
2023/03/10 10:53:25;;;;;;;0.40;0.40;;;;;;;2.33;100.00;97661.47;5071121;28;20654;-82
2023/03/10 10:56:04;;;;;;;0.43;0.43;;;;;;;2.28;100.00;97647.38;5069854;28;20184;-75
2023/03/10 10:58:34;;;;;;;0.30;0.30;;;;;;;2.21;100.00;97655.97;5069624;28;20179;-80
2023/03/10 11:01:14;;;;;;;0.53;0.53;;;;;;;2.18;100.00;97653.94;5071165;28;20170;-81
2023/03/10 11:03:42;;;;;;;0.00;0.00;;;;;;;2.16;100.00;97656.16;5071176;28;20216;-82
2023/03/10 11:06:13;;;;;;;0.00;0.00;;;;;;;2.27;100.00;97665.44;5070999;28;20197;-80
2023/03/10 11:08:41;;;;;;;0.80;0.80;;;;;;;2.39;100.00;97662.06;5070697;28;20201;-79
2023/03/10 11:11:13;;;;;;;0.10;0.10;;;;;;;2.29;100.00;97657.81;5070829;28;20669;-81
2023/03/10 11:14:10;;;;;;;0.33;0.33;;;;;;;2.32;100.00;97651.00;5070804;28;20182;-81
2023/03/10 11:16:53;;;;;;;0.33;0.33;;;;;;;2.41;100.00;97653.63;5069167;28;20667;-78
2023/03/10 11:19:28;;;;;;;0.70;0.70;;;;;;;2.35;100.00;97648.44;5070863;28;20177;-82
2023/03/10 11:22:01;;;;;;;1.43;1.43;;;;;;;2.36;100.00;97646.56;5070884;28;20260;-82
2023/03/10 11:24:35;;;;;;;0.10;0.10;;;;;;;2.44;100.00;97640.31;5070912;28;20217;-81
2023/03/10 11:27:19;;;;;;;0.00;0.00;;;;;;;2.54;100.00;97648.00;5070581;28;20182;-80
2023/03/10 11:30:14;;;;;;;0.23;0.17;;;;;;;2.53;100.00;97634.88;5069497;28;20190;-82
2023/03/10 11:33:07;;;;;;;3.70;1.13;;;;;;;2.55;100.00;97646.09;5041391;28;20194;-78
2023/03/10 11:35:45;;;;;;;0.27;0.27;;;;;;;2.59;100.00;97661.28;5070351;28;20477;-78
2023/03/10 11:38:28;;;;;;;0.47;0.47;;;;;;;2.56;100.00;97661.94;5069924;28;20177;-80